TimeCAT,TemperatureF,Dew PointF,Humidity,Sea Level PressureIn,VisibilityMPH,Wind Direction,Wind SpeedMPH,Gust SpeedMPH,PrecipitationIn,Events,Conditions,WindDirDegrees,DateUTC
12:00 AM,66.2,66.2,100,30.15,6.2,North,3.5,-,N/A,,Mostly Cloudy,360,2013-01-06 22:00:00
1:00 AM,66.2,66.2,100,30.12,6.2,North,3.5,-,N/A,,Mostly Cloudy,10,2013-01-06 23:00:00
2:00 AM,65,65,98,,19,ESE,3.5,,,,Partly Cloudy,110,2013-01-07 00:00:00
2:00 AM,64.4,64.4,100,30.09,6.2,ESE,3.5,-,N/A,,Mostly Cloudy,110,2013-01-07 00:00:00
6:00 AM,64.4,62.6,94,30.12,6.2,ESE,3.5,-,N/A,,Scattered Clouds,120,2013-01-07 04:00:00
7:00 AM,64.4,64.4,100,30.18,6.2,East,6.9,-,N/A,,Mostly Cloudy,90,2013-01-07 05:00:00
8:00 AM,67,64,87,,19,East,5.8,,,,Mostly Cloudy,100,2013-01-07 06:00:00
8:00 AM,68.0,64.4,88,30.18,6.2,East,5.8,-,N/A,,Mostly Cloudy,100,2013-01-07 06:00:00
9:00 AM,69.8,64.4,83,30.18,6.2,South,3.5,-,N/A,,Mostly Cloudy,170,2013-01-07 07:00:00
10:00 AM,71.6,62.6,73,30.15,6.2,ESE,6.9,-,N/A,,Mostly Cloudy,120,2013-01-07 08:00:00
11:00 AM,73.4,64.4,73,30.15,6.2,East,8.1,-,N/A,,Mostly Cloudy,90,2013-01-07 09:00:00
12:00 PM,75.2,64.4,69,30.12,6.2,ENE,12.7,-,N/A,,Mostly Cloudy,60,2013-01-07 10:00:00
1:00 PM,75.2,64.4,69,30.12,6.2,NE,11.5,-,N/A,,Scattered Clouds,40,2013-01-07 11:00:00
2:00 PM,78,65,56,,19,East,10.4,,,,Partly Cloudy,80,2013-01-07 12:00:00
2:00 PM,78.8,64.4,61,30.09,6.2,East,10.4,-,N/A,,Scattered Clouds,80,2013-01-07 12:00:00
3:00 PM,78.8,62.6,57,30.06,6.2,East,10.4,-,N/A,,Mostly Cloudy,90,2013-01-07 13:00:00
4:00 PM,73.4,66.2,78,30.06,6.2,SSE,6.9,-,N/A,,Mostly Cloudy,160,2013-01-07 14:00:00
5:00 PM,73.4,60.8,65,30.06,6.2,ESE,12.7,-,N/A,,Mostly Cloudy,120,2013-01-07 15:00:00
6:00 PM,73.4,57.2,57,30.09,6.2,SE,13.8,-,N/A,,Mostly Cloudy,140,2013-01-07 16:00:00
7:00 PM,71.6,59.0,64,30.12,-9999.0,SE,8.1,-,N/A,,Clear,130,2013-01-07 17:00:00
8:00 PM,70,60,62,,19,SE,10.4,,,,Partly Cloudy,130,2013-01-07 18:00:00
8:00 PM,69.8,60.8,73,30.15,-9999.0,SE,10.4,-,N/A,,Clear,130,2013-01-07 18:00:00
9:00 PM,68.0,59.0,73,30.18,-9999.0,SE,8.1,-,N/A,,Clear,130,2013-01-07 19:00:00